createdAt,value
2023-01-30T00:01:00.666Z,100453.66
2023-01-30T00:03:27.671Z,100456.66
2023-01-30T00:05:53.904Z,100438.78
2023-01-30T00:08:20.484Z,100435.78
2023-01-30T00:10:47.533Z,100439.56
2023-01-30T00:13:14.740Z,100434.19
2023-01-30T00:15:41.341Z,100421.06
2023-01-30T00:18:07.776Z,100388.56
2023-01-30T00:20:34.332Z,100403.34
2023-01-30T00:23:01.365Z,100391.00
2023-01-30T00:25:27.977Z,100387.22
2023-01-30T00:27:54.262Z,100384.38
2023-01-30T00:30:22.367Z,100386.56
2023-01-30T00:32:48.539Z,100379.31
2023-01-30T00:35:14.737Z,100373.44
2023-01-30T00:37:40.863Z,100359.38
2023-01-30T00:40:08.776Z,100343.25
2023-01-30T00:42:53.628Z,100330.94
2023-01-30T00:45:38.899Z,100320.19
2023-01-30T00:48:07.699Z,100306.25
2023-01-30T00:50:42.646Z,100301.38
2023-01-30T00:53:13.189Z,100275.59
2023-01-30T00:55:40.593Z,100268.63
2023-01-30T00:58:06.932Z,100254.41
2023-01-30T01:00:33.424Z,100247.56
2023-01-30T01:02:59.590Z,100234.03
2023-01-30T01:05:26.246Z,100230.53
2023-01-30T01:07:52.765Z,100236.22
2023-01-30T01:10:19.327Z,100228.66
2023-01-30T01:12:46.571Z,100242.38
2023-01-30T01:15:13.917Z,100246.66
2023-01-30T01:17:42.013Z,100237.78
2023-01-30T01:20:10.440Z,100226.25
2023-01-30T01:22:36.660Z,100234.31
2023-01-30T01:25:02.770Z,100227.03
2023-01-30T01:27:29.692Z,100206.34
2023-01-30T01:29:55.807Z,100172.50
2023-01-30T01:32:22.720Z,100154.81
2023-01-30T01:34:48.848Z,100161.00
2023-01-30T01:37:15.230Z,100163.69
2023-01-30T01:40:00.947Z,100169.38
2023-01-30T01:42:33.325Z,100162.22
2023-01-30T01:45:18.086Z,100156.53
2023-01-30T01:48:05.831Z,100158.13
2023-01-30T01:50:44.056Z,100157.81
2023-01-30T01:53:14.556Z,100173.13
2023-01-30T01:55:43.482Z,100173.75
2023-01-30T01:58:37.637Z,100167.28
2023-01-30T02:01:04.123Z,100160.81
2023-01-30T02:03:35.761Z,100155.44
2023-01-30T02:06:03.755Z,100142.31
2023-01-30T02:08:36.932Z,100143.91
2023-01-30T02:11:36.953Z,100122.41
2023-01-30T02:14:04.216Z,100108.16
2023-01-30T02:16:30.376Z,100095.06
2023-01-30T02:18:56.576Z,100097.44
2023-01-30T02:21:34.890Z,100084.31
2023-01-30T02:24:13.047Z,100087.78
2023-01-30T02:26:54.523Z,100075.47
2023-01-30T02:29:48.377Z,100063.94
2023-01-30T02:32:36.394Z,100050.50
2023-01-30T02:35:05.611Z,100038.97
2023-01-30T02:37:44.879Z,100030.09
2023-01-30T02:40:43.001Z,100016.38
2023-01-30T02:43:31.015Z,100020.94
2023-01-30T02:46:05.425Z,100027.41
2023-01-30T02:48:47.069Z,100036.59
2023-01-30T02:51:43.883Z,100027.72
2023-01-30T02:54:12.988Z,100031.22
2023-01-30T02:56:58.708Z,100011.63
2023-01-30T02:59:36.989Z,99990.59
2023-01-30T03:02:14.977Z,99997.88
2023-01-30T03:04:54.016Z,99990.13
2023-01-30T03:07:35.001Z,99984.75
2023-01-30T03:10:07.203Z,99978.28
2023-01-30T03:12:50.561Z,99971.97
2023-01-30T03:15:29.146Z,99984.28
2023-01-30T03:17:56.135Z,99977.81
2023-01-30T03:20:22.419Z,99973.25
2023-01-30T03:22:48.624Z,99972.13
2023-01-30T03:25:22.130Z,99983.19
2023-01-30T03:27:51.476Z,99967.06
2023-01-30T03:30:18.368Z,99976.69
2023-01-30T03:32:44.586Z,99965.94
2023-01-30T03:35:11.029Z,99956.31
2023-01-30T03:37:37.348Z,99964.69
2023-01-30T03:40:04.576Z,99970.84
2023-01-30T03:42:31.623Z,99968.16
2023-01-30T03:44:57.768Z,99955.53
2023-01-30T03:47:25.013Z,99943.97
2023-01-30T03:49:52.477Z,99947.13
2023-01-30T03:52:18.780Z,99942.09
2023-01-30T03:54:45.014Z,99922.19
2023-01-30T03:57:11.462Z,99924.88
2023-01-30T03:59:38.156Z,99924.88
2023-01-30T04:02:08.683Z,99909.06
2023-01-30T04:04:35.323Z,99906.38
2023-01-30T04:07:04.020Z,99894.69
2023-01-30T04:09:31.553Z,99898.03
2023-01-30T04:11:57.802Z,99903.41
2023-01-30T04:14:26.420Z,99894.06
2023-01-30T04:17:15.311Z,99886.47
2023-01-30T04:19:47.061Z,99886.47
2023-01-30T04:22:13.869Z,99881.09
2023-01-30T04:24:40.116Z,99866.56
2023-01-30T04:27:06.466Z,99865.78
2023-01-30T04:29:38.308Z,99866.06
2023-01-30T04:32:08.644Z,99862.16
2023-01-30T04:34:36.903Z,99866.06
2023-01-30T04:37:03.090Z,99867.69
2023-01-30T04:39:30.165Z,99848.88
2023-01-30T04:41:56.568Z,99849.19
2023-01-30T04:44:22.674Z,99830.09
2023-01-30T04:46:56.936Z,99840.00
2023-01-30T04:49:23.168Z,99843.03
2023-01-30T04:51:50.081Z,99834.97
2023-01-30T04:54:16.220Z,99829.59
2023-01-30T04:56:42.387Z,99813.47
2023-01-30T04:59:08.618Z,99808.09
2023-01-30T05:01:40.811Z,99810.00
2023-01-30T05:04:07.997Z,99798.47
2023-01-30T05:06:35.337Z,99803.06
2023-01-30T05:09:01.725Z,99797.69
2023-01-30T05:11:29.762Z,99790.41
2023-01-30T05:13:56.609Z,99789.63
2023-01-30T05:16:23.405Z,99777.00
2023-01-30T05:18:50.757Z,99783.13
2023-01-30T05:21:19.848Z,99775.06
2023-01-30T05:23:46.096Z,99768.94
2023-01-30T05:26:13.435Z,99752.34
2023-01-30T05:28:40.250Z,99757.88
2023-01-30T05:31:12.670Z,99745.53
2023-01-30T05:33:39.887Z,99750.13
2023-01-30T05:36:06.833Z,99750.91
2023-01-30T05:38:33.109Z,99740.47
2023-01-30T05:41:05.706Z,99740.16
2023-01-30T05:43:32.719Z,99742.84
2023-01-30T05:46:01.991Z,99744.75
2023-01-30T05:48:28.888Z,99739.09
2023-01-30T05:50:56.759Z,99719.53
2023-01-30T05:53:24.613Z,99740.00
2023-01-30T05:55:57.034Z,99722.94
2023-01-30T05:58:23.662Z,99713.75
2023-01-30T06:00:50.015Z,99710.59
2023-01-30T06:03:16.147Z,99704.31
2023-01-30T06:05:42.298Z,99698.94
2023-01-30T06:08:08.519Z,99691.19
2023-01-30T06:10:35.867Z,99692.00
2023-01-30T06:13:02.237Z,99690.13
2023-01-30T06:15:28.449Z,99706.84
2023-01-30T06:17:54.631Z,99705.38
2023-01-30T06:20:21.023Z,99718.97
2023-01-30T06:22:48.869Z,99706.97
2023-01-30T06:25:15.705Z,99714.38
2023-01-30T06:27:43.435Z,99711.56
2023-01-30T06:30:10.053Z,99714.06
2023-01-30T06:32:36.254Z,99718.63
2023-01-30T06:35:02.428Z,99709.81
2023-01-30T06:37:28.756Z,99717.41
2023-01-30T06:39:54.935Z,99721.19
2023-01-30T06:42:21.041Z,99710.91
2023-01-30T06:44:47.187Z,99700.47
2023-01-30T06:47:13.295Z,99702.84
2023-01-30T06:49:39.424Z,99694.78
2023-01-30T06:52:05.537Z,99697.78
2023-01-30T06:54:31.670Z,99687.06
2023-01-30T06:56:57.785Z,99679.66
2023-01-30T06:59:23.941Z,99683.13
2023-01-30T07:01:50.111Z,99678.84
2023-01-30T07:04:16.308Z,99680.44
2023-01-30T07:06:42.533Z,99665.88
2023-01-30T07:09:08.677Z,99675.84
2023-01-30T07:11:34.787Z,99667.78
2023-01-30T07:14:00.925Z,99667.00
2023-01-30T07:16:29.543Z,99653.88
2023-01-30T07:18:58.560Z,99661.50
2023-01-30T07:21:25.684Z,99660.03
2023-01-30T07:23:51.817Z,99653.88
2023-01-30T07:26:17.935Z,99653.13
2023-01-30T07:28:44.080Z,99650.44
2023-01-30T07:31:10.303Z,99639.06
2023-01-30T07:33:36.508Z,99615.09
2023-01-30T07:36:02.634Z,99644.59
2023-01-30T07:38:28.763Z,99649.31
2023-01-30T07:40:57.916Z,99655.00
2023-01-30T07:43:24.385Z,99649.63
2023-01-30T07:45:50.491Z,99652.78
2023-01-30T07:48:20.026Z,99638.13
2023-01-30T07:50:46.699Z,99656.56
2023-01-30T07:53:15.482Z,99657.69
2023-01-30T07:55:41.926Z,99661.63
2023-01-30T07:58:08.215Z,99658.16
2023-01-30T08:00:36.079Z,99667.31
2023-01-30T08:03:02.354Z,99663.53
2023-01-30T08:05:28.556Z,99668.09
2023-01-30T08:07:57.668Z,99672.69
2023-01-30T08:10:24.125Z,99661.50
2023-01-30T08:12:51.564Z,99658.81
2023-01-30T08:15:17.761Z,99667.78
2023-01-30T08:17:43.960Z,99669.69
2023-01-30T08:20:10.852Z,99667.78
2023-01-30T08:22:36.993Z,99653.25
2023-01-30T08:25:03.192Z,99656.41
2023-01-30T08:27:29.308Z,99651.81
2023-01-30T08:29:55.459Z,99654.81
2023-01-30T08:32:21.641Z,99663.19
2023-01-30T08:34:47.759Z,99661.78
2023-01-30T08:37:14.131Z,99650.25
2023-01-30T08:39:40.252Z,99638.69
2023-01-30T08:42:06.364Z,99632.25
2023-01-30T08:44:32.506Z,99641.72
2023-01-30T08:46:58.638Z,99642.50
2023-01-30T08:49:24.768Z,99636.34
2023-01-30T08:51:50.878Z,99644.06
2023-01-30T08:54:17.000Z,99654.34
2023-01-30T08:56:43.138Z,99658.78
2023-01-30T08:59:09.270Z,99640.72
2023-01-30T09:01:35.752Z,99646.09
2023-01-30T09:04:01.897Z,99651.47
2023-01-30T09:06:28.019Z,99655.28
2023-01-30T09:08:54.159Z,99653.72
2023-01-30T09:11:20.450Z,99657.50
2023-01-30T09:13:48.780Z,99657.50
2023-01-30T09:16:15.922Z,99664.47
2023-01-30T09:18:43.585Z,99659.09
2023-01-30T09:21:11.015Z,99656.41
2023-01-30T09:23:37.574Z,99643.59
2023-01-30T09:26:05.108Z,99661.78
2023-01-30T09:28:32.044Z,99658.63
2023-01-30T09:30:59.556Z,99657.97
2023-01-30T09:33:25.785Z,99649.31
2023-01-30T09:35:52.331Z,99658.63
2023-01-30T09:38:19.555Z,99660.66
2023-01-30T09:40:59.334Z,99663.03
2023-01-30T09:43:40.115Z,99652.28
2023-01-30T09:46:20.292Z,99632.44
2023-01-30T09:49:12.345Z,99656.41
2023-01-30T09:52:12.759Z,99658.78
2023-01-30T09:54:42.587Z,99653.72
2023-01-30T09:57:20.267Z,99646.09
2023-01-30T10:00:04.690Z,99651.47
2023-01-30T10:02:44.897Z,99648.03
2023-01-30T10:05:12.160Z,99647.56
2023-01-30T10:08:02.450Z,99652.28
2023-01-30T10:11:09.605Z,99645.34
2023-01-30T10:14:23.810Z,99639.63
2023-01-30T10:17:15.299Z,99636.16
2023-01-30T10:19:56.053Z,99640.09
2023-01-30T10:22:46.515Z,99639.63
2023-01-30T10:25:31.358Z,99635.34
2023-01-30T10:28:03.870Z,99626.22
2023-01-30T10:30:30.496Z,99620.50
2023-01-30T10:33:02.923Z,99619.38
2023-01-30T10:35:39.119Z,99626.81
2023-01-30T10:38:26.994Z,99623.78
2023-01-30T10:41:00.881Z,99622.22
2023-01-30T10:43:38.250Z,99614.16
2023-01-30T10:46:10.533Z,99618.28
2023-01-30T10:48:45.520Z,99620.19
2023-01-30T10:51:18.495Z,99616.69
2023-01-30T10:53:53.748Z,99607.53
2023-01-30T10:56:28.397Z,99611.00
2023-01-30T10:59:05.134Z,99602.31
2023-01-30T11:01:45.358Z,99603.88
2023-01-30T11:04:25.875Z,99599.28
2023-01-30T11:06:53.724Z,99598.34
2023-01-30T11:09:19.864Z,99600.72
2023-01-30T11:11:53.589Z,99598.50
2023-01-30T11:14:19.928Z,99590.44
2023-01-30T11:16:50.042Z,99590.09
2023-01-30T11:19:21.937Z,99589.63
2023-01-30T11:21:53.743Z,99582.03
2023-01-30T11:24:23.384Z,99577.94
2023-01-30T11:26:50.274Z,99584.41
2023-01-30T11:29:26.153Z,99561.16
2023-01-30T11:31:53.194Z,99562.75
2023-01-30T11:34:21.686Z,99556.91
2023-01-30T11:36:48.721Z,99541.88
2023-01-30T11:39:15.965Z,99550.88
2023-01-30T11:41:43.831Z,99545.69
2023-01-30T11:44:11.503Z,99532.13
2023-01-30T11:46:40.785Z,99511.34
2023-01-30T11:49:47.305Z,99522.34
2023-01-30T11:52:04.327Z,99504.19
2023-01-30T11:54:38.099Z,99505.13
2023-01-30T11:57:10.370Z,99502.78
2023-01-30T11:59:44.657Z,99500.22
2023-01-30T12:02:20.415Z,99512.53
2023-01-30T12:04:48.300Z,99502.09
2023-01-30T12:07:26.373Z,99500.69
2023-01-30T12:09:54.309Z,99499.56
2023-01-30T12:12:28.782Z,99505.25
2023-01-30T12:15:05.124Z,99490.22
2023-01-30T12:17:56.081Z,99499.09
2023-01-30T12:21:02.145Z,99498.63
2023-01-30T12:23:41.060Z,99494.03
2023-01-30T12:26:17.037Z,99493.38
2023-01-30T12:29:02.426Z,99500.69
2023-01-30T12:31:42.241Z,99501.78
2023-01-30T12:34:09.485Z,99495.59
2023-01-30T12:37:08.497Z,99484.84
2023-01-30T12:40:08.695Z,99486.00
2023-01-30T12:42:55.041Z,99488.81
2023-01-30T12:45:27.023Z,99490.06
2023-01-30T12:48:21.744Z,99476.63
2023-01-30T12:51:06.577Z,99489.06
2023-01-30T12:53:48.216Z,99478.31
2023-01-30T12:56:26.349Z,99468.69
2023-01-30T12:59:00.988Z,99466.09
2023-01-30T13:01:53.368Z,99467.09
2023-01-30T13:04:35.815Z,99468.88
2023-01-30T13:07:32.610Z,99471.25
2023-01-30T13:10:22.890Z,99451.97
2023-01-30T13:13:13.599Z,99462.72
2023-01-30T13:15:57.267Z,99466.19
2023-01-30T13:18:52.760Z,99457.34
2023-01-30T13:21:50.877Z,99461.59
2023-01-30T13:24:25.215Z,99455.00
2023-01-30T13:26:53.587Z,99447.38
2023-01-30T13:29:31.919Z,99449.63
2023-01-30T13:32:01.479Z,99441.88
2023-01-30T13:34:33.912Z,99434.34
2023-01-30T13:37:11.366Z,99429.09
2023-01-30T13:39:43.625Z,99432.59
2023-01-30T13:42:20.864Z,99433.38
2023-01-30T13:44:49.593Z,99427.56
2023-01-30T13:48:03.814Z,99417.56
2023-01-30T13:50:47.336Z,99403.72
2023-01-30T13:53:22.971Z,99417.91
2023-01-30T13:56:32.779Z,99413.66
2023-01-30T13:59:26.842Z,99424.72
2023-01-30T14:01:59.132Z,99423.16
2023-01-30T14:04:40.304Z,99407.03
2023-01-30T14:07:10.201Z,99402.78
2023-01-30T14:09:37.379Z,99409.72
2023-01-30T14:12:04.183Z,99414.00
2023-01-30T14:14:38.302Z,99418.56
2023-01-30T14:17:11.921Z,99414.66
2023-01-30T14:19:54.995Z,99446.91
2023-01-30T14:22:24.843Z,99456.38
2023-01-30T14:25:28.057Z,99446.09
2023-01-30T14:28:14.339Z,99444.84
2023-01-30T14:30:54.404Z,99469.00
2023-01-30T14:33:23.210Z,99476.75
2023-01-30T14:36:15.277Z,99493.66
2023-01-30T14:38:42.163Z,99503.16
2023-01-30T14:41:24.782Z,99520.38
2023-01-30T14:43:53.521Z,99517.69
2023-01-30T14:46:19.842Z,99516.91
2023-01-30T14:49:01.016Z,99512.66
2023-01-30T14:51:39.273Z,99522.59
2023-01-30T14:54:17.203Z,99530.19
2023-01-30T14:57:01.362Z,99545.22
2023-01-30T14:59:39.355Z,99567.78
2023-01-30T15:02:14.662Z,99561.19
2023-01-30T15:04:49.376Z,99558.97
2023-01-30T15:07:27.501Z,99559.59
2023-01-30T15:09:59.387Z,99563.88
2023-01-30T15:13:11.533Z,99566.09
2023-01-30T15:16:04.237Z,99557.72
2023-01-30T15:19:13.485Z,99557.72
2023-01-30T15:22:16.088Z,99573.03
2023-01-30T15:24:49.306Z,99572.88
2023-01-30T15:27:38.551Z,99590.72
2023-01-30T15:30:39.669Z,99604.81
2023-01-30T15:33:29.756Z,99580.31
2023-01-30T15:35:56.938Z,99592.16
2023-01-30T15:38:34.475Z,99604.50
2023-01-30T15:41:03.536Z,99592.47
2023-01-30T15:43:59.322Z,99594.84
2023-01-30T15:46:50.332Z,99608.25
2023-01-30T15:49:52.135Z,99613.97
2023-01-30T15:52:21.172Z,99619.34
2023-01-30T15:54:50.976Z,99619.34
2023-01-30T15:57:25.594Z,99612.06
2023-01-30T15:59:54.325Z,99616.66
2023-01-30T16:02:35.661Z,99622.03
2023-01-30T16:05:17.234Z,99616.97
2023-01-30T16:07:45.711Z,99629.28
2023-01-30T16:10:17.206Z,99638.13
2023-01-30T16:12:44.065Z,99635.78
2023-01-30T16:15:19.606Z,99638.47
2023-01-30T16:17:56.842Z,99633.88
2023-01-30T16:20:23.150Z,99638.78
2023-01-30T16:22:49.529Z,99640.34
2023-01-30T16:25:22.137Z,99640.69
2023-01-30T16:27:50.427Z,99661.06
2023-01-30T16:30:21.268Z,99667.19
